sensor_id;sensor_type;location;lat;lon;timestamp;pressure;altitude;pressure_sealevel;temperature;humidity
25430;BME280;13360;48.152;-1.788;2023-09-30T00:02:00;102842.50;;;15.75;100.00
25430;BME280;13360;48.152;-1.788;2023-09-30T00:04:25;102872.84;;;15.76;100.00
25430;BME280;13360;48.152;-1.788;2023-09-30T00:06:52;102894.03;;;15.77;100.00
25430;BME280;13360;48.152;-1.788;2023-09-30T00:09:17;102921.34;;;15.80;100.00
25430;BME280;13360;48.152;-1.788;2023-09-30T00:11:42;102940.84;;;15.80;100.00
25430;BME280;13360;48.152;-1.788;2023-09-30T00:14:08;102963.97;;;15.81;100.00
25430;BME280;13360;48.152;-1.788;2023-09-30T00:16:33;102980.69;;;15.81;100.00
25430;BME280;13360;48.152;-1.788;2023-09-30T00:18:59;102999.34;;;15.80;100.00
25430;BME280;13360;48.152;-1.788;2023-09-30T00:21:25;103011.63;;;15.79;100.00
25430;BME280;13360;48.152;-1.788;2023-09-30T00:23:51;103026.66;;;15.78;100.00
25430;BME280;13360;48.152;-1.788;2023-09-30T00:26:16;103045.88;;;15.80;100.00
25430;BME280;13360;48.152;-1.788;2023-09-30T00:28:41;103065.69;;;15.78;100.00
25430;BME280;13360;48.152;-1.788;2023-09-30T00:31:07;103086.28;;;15.77;100.00
25430;BME280;13360;48.152;-1.788;2023-09-30T00:33:35;103109.13;;;15.74;100.00
25430;BME280;13360;48.152;-1.788;2023-09-30T00:36:05;103151.78;;;15.75;100.00
25430;BME280;13360;48.152;-1.788;2023-09-30T00:38:30;103188.00;;;15.75;100.00
25430;BME280;13360;48.152;-1.788;2023-09-30T00:40:55;103220.31;;;15.76;100.00
25430;BME280;13360;48.152;-1.788;2023-09-30T00:43:21;103226.47;;;15.78;100.00
25430;BME280;13360;48.152;-1.788;2023-09-30T00:45:48;103232.88;;;15.78;100.00
25430;BME280;13360;48.152;-1.788;2023-09-30T00:48:14;103241.50;;;15.77;100.00
25430;BME280;13360;48.152;-1.788;2023-09-30T00:50:39;103249.03;;;15.76;100.00
25430;BME280;13360;48.152;-1.788;2023-09-30T00:53:05;103269.38;;;15.77;100.00
25430;BME280;13360;48.152;-1.788;2023-09-30T00:55:30;103288.88;;;15.77;100.00
25430;BME280;13360;48.152;-1.788;2023-09-30T00:57:56;103310.91;;;15.78;100.00
25430;BME280;13360;48.152;-1.788;2023-09-30T01:00:21;103327.63;;;15.78;100.00
25430;BME280;13360;48.152;-1.788;2023-09-30T01:02:50;103320.94;;;15.79;100.00
25430;BME280;13360;48.152;-1.788;2023-09-30T01:05:15;103328.72;;;15.77;100.00
25430;BME280;13360;48.152;-1.788;2023-09-30T01:07:40;103343.50;;;15.78;100.00
25430;BME280;13360;48.152;-1.788;2023-09-30T01:10:06;103355.50;;;15.78;100.00
25430;BME280;13360;48.152;-1.788;2023-09-30T01:12:31;103374.72;;;15.80;100.00
25430;BME280;13360;48.152;-1.788;2023-09-30T01:14:57;103386.69;;;15.75;100.00
25430;BME280;13360;48.152;-1.788;2023-09-30T01:17:23;103408.13;;;15.75;100.00
25430;BME280;13360;48.152;-1.788;2023-09-30T01:19:48;103418.44;;;15.74;100.00
25430;BME280;13360;48.152;-1.788;2023-09-30T01:22:15;103421.81;;;15.76;100.00
25430;BME280;13360;48.152;-1.788;2023-09-30T01:24:41;103445.78;;;15.77;100.00
25430;BME280;13360;48.152;-1.788;2023-09-30T01:27:07;103443.56;;;15.79;100.00
25430;BME280;13360;48.152;-1.788;2023-09-30T01:29:32;103461.09;;;15.75;100.00
25430;BME280;13360;48.152;-1.788;2023-09-30T01:31:57;103483.06;;;15.71;100.00
25430;BME280;13360;48.152;-1.788;2023-09-30T01:34:22;103496.75;;;15.73;100.00
25430;BME280;13360;48.152;-1.788;2023-09-30T01:36:48;103509.56;;;15.74;100.00
25430;BME280;13360;48.152;-1.788;2023-09-30T01:39:13;103510.41;;;15.74;100.00
25430;BME280;13360;48.152;-1.788;2023-09-30T01:41:39;103508.19;;;15.76;100.00
25430;BME280;13360;48.152;-1.788;2023-09-30T01:44:04;103510.97;;;15.76;100.00
25430;BME280;13360;48.152;-1.788;2023-09-30T01:46:30;103537.16;;;15.75;100.00
25430;BME280;13360;48.152;-1.788;2023-09-30T01:48:55;103561.09;;;15.71;100.00
25430;BME280;13360;48.152;-1.788;2023-09-30T01:51:20;103570.88;;;15.74;100.00
25430;BME280;13360;48.152;-1.788;2023-09-30T01:53:46;103567.25;;;15.73;100.00
25430;BME280;13360;48.152;-1.788;2023-09-30T01:56:12;103572.25;;;15.71;100.00
25430;BME280;13360;48.152;-1.788;2023-09-30T01:58:37;103568.63;;;15.71;100.00
25430;BME280;13360;48.152;-1.788;2023-09-30T02:01:02;103573.94;;;15.72;100.00
25430;BME280;13360;48.152;-1.788;2023-09-30T02:03:28;103585.91;;;15.73;100.00
25430;BME280;13360;48.152;-1.788;2023-09-30T02:05:54;103586.75;;;15.73;100.00
25430;BME280;13360;48.152;-1.788;2023-09-30T02:08:19;103583.97;;;15.73;100.00
25430;BME280;13360;48.152;-1.788;2023-09-30T02:10:44;103585.06;;;15.72;100.00
25430;BME280;13360;48.152;-1.788;2023-09-30T02:13:09;103587.59;;;15.74;100.00
25430;BME280;13360;48.152;-1.788;2023-09-30T02:15:35;103590.91;;;15.71;100.00
25430;BME280;13360;48.152;-1.788;2023-09-30T02:18:00;103592.84;;;15.70;100.00
25430;BME280;13360;48.152;-1.788;2023-09-30T02:20:26;103592.84;;;15.70;100.00
25430;BME280;13360;48.152;-1.788;2023-09-30T02:22:54;103597.59;;;15.70;100.00
25430;BME280;13360;48.152;-1.788;2023-09-30T02:25:20;103592.59;;;15.72;100.00
25430;BME280;13360;48.152;-1.788;2023-09-30T02:27:45;103601.78;;;15.72;100.00
25430;BME280;13360;48.152;-1.788;2023-09-30T02:30:10;103608.75;;;15.70;100.00
25430;BME280;13360;48.152;-1.788;2023-09-30T02:32:39;103612.63;;;15.69;100.00
25430;BME280;13360;48.152;-1.788;2023-09-30T02:35:05;103617.38;;;15.68;100.00
25430;BME280;13360;48.152;-1.788;2023-09-30T02:37:32;103619.31;;;15.68;100.00
25430;BME280;13360;48.152;-1.788;2023-09-30T02:40:00;103628.78;;;15.67;100.00
25430;BME280;13360;48.152;-1.788;2023-09-30T02:42:25;103627.09;;;15.66;100.00
25430;BME280;13360;48.152;-1.788;2023-09-30T02:44:51;103638.50;;;15.64;100.00
25430;BME280;13360;48.152;-1.788;2023-09-30T02:47:16;103629.88;;;15.66;100.00
25430;BME280;13360;48.152;-1.788;2023-09-30T02:49:41;103629.03;;;15.65;100.00
25430;BME280;13360;48.152;-1.788;2023-09-30T02:52:06;103624.31;;;15.66;100.00
25430;BME280;13360;48.152;-1.788;2023-09-30T02:54:32;103619.00;;;15.64;100.00
25430;BME280;13360;48.152;-1.788;2023-09-30T02:56:57;103627.84;;;15.61;100.00
25430;BME280;13360;48.152;-1.788;2023-09-30T02:59:22;103627.28;;;15.59;100.00
25430;BME280;13360;48.152;-1.788;2023-09-30T03:01:48;103632.00;;;15.59;100.00
25430;BME280;13360;48.152;-1.788;2023-09-30T03:04:13;103618.31;;;15.57;100.00
25430;BME280;13360;48.152;-1.788;2023-09-30T03:06:38;103619.41;;;15.56;100.00
25430;BME280;13360;48.152;-1.788;2023-09-30T03:09:04;103602.69;;;15.56;100.00
25430;BME280;13360;48.152;-1.788;2023-09-30T03:11:30;103596.19;;;15.45;100.00
25430;BME280;13360;48.152;-1.788;2023-09-30T03:13:55;103604.22;;;15.42;100.00
25430;BME280;13360;48.152;-1.788;2023-09-30T03:16:20;103601.50;;;15.47;100.00
25430;BME280;13360;48.152;-1.788;2023-09-30T03:18:45;103598.69;;;15.47;100.00
25430;BME280;13360;48.152;-1.788;2023-09-30T03:21:14;103602.59;;;15.46;100.00
25430;BME280;13360;48.152;-1.788;2023-09-30T03:23:39;103593.66;;;15.44;100.00
25430;BME280;13360;48.152;-1.788;2023-09-30T03:26:05;103598.38;;;15.43;100.00
25430;BME280;13360;48.152;-1.788;2023-09-30T03:28:35;103583.88;;;15.41;100.00
25430;BME280;13360;48.152;-1.788;2023-09-30T03:31:00;103581.31;;;15.40;100.00
25430;BME280;13360;48.152;-1.788;2023-09-30T03:33:25;103591.63;;;15.39;100.00
25430;BME280;13360;48.152;-1.788;2023-09-30T03:35:51;103595.25;;;15.40;100.00
25430;BME280;13360;48.152;-1.788;2023-09-30T03:38:17;103579.66;;;15.39;100.00
25430;BME280;13360;48.152;-1.788;2023-09-30T03:40:43;103571.28;;;15.39;100.00
25430;BME280;13360;48.152;-1.788;2023-09-30T03:43:12;103561.25;;;15.38;100.00
25430;BME280;13360;48.152;-1.788;2023-09-30T03:45:38;103549.28;;;15.37;100.00
25430;BME280;13360;48.152;-1.788;2023-09-30T03:48:04;103536.44;;;15.36;100.00
25430;BME280;13360;48.152;-1.788;2023-09-30T03:50:29;103529.19;;;15.35;100.00
25430;BME280;13360;48.152;-1.788;2023-09-30T03:53:00;103511.66;;;15.35;100.00
25430;BME280;13360;48.152;-1.788;2023-09-30T03:55:26;103485.69;;;15.29;100.00
25430;BME280;13360;48.152;-1.788;2023-09-30T03:57:51;103496.00;;;15.29;100.00
25430;BME280;13360;48.152;-1.788;2023-09-30T04:00:16;103496.00;;;15.29;100.00
25430;BME280;13360;48.152;-1.788;2023-09-30T04:02:44;103487.38;;;15.30;100.00
25430;BME280;13360;48.152;-1.788;2023-09-30T04:05:13;103457.00;;;15.29;100.00
25430;BME280;13360;48.152;-1.788;2023-09-30T04:07:39;103443.63;;;15.25;100.00
25430;BME280;13360;48.152;-1.788;2023-09-30T04:10:04;103435.00;;;15.27;100.00
25430;BME280;13360;48.152;-1.788;2023-09-30T04:12:30;103403.78;;;15.25;100.00
25430;BME280;13360;48.152;-1.788;2023-09-30T04:14:57;103392.34;;;15.21;100.00
25430;BME280;13360;48.152;-1.788;2023-09-30T04:17:23;103389.56;;;15.21;100.00
25430;BME280;13360;48.152;-1.788;2023-09-30T04:19:48;103380.63;;;15.19;100.00
25430;BME280;13360;48.152;-1.788;2023-09-30T04:22:16;103377.81;;;15.19;100.00
25430;BME280;13360;48.152;-1.788;2023-09-30T04:24:41;103375.28;;;15.13;100.00
25430;BME280;13360;48.152;-1.788;2023-09-30T04:27:07;103368.56;;;15.09;100.00
25430;BME280;13360;48.152;-1.788;2023-09-30T04:29:32;103361.00;;;15.04;100.00
25430;BME280;13360;48.152;-1.788;2023-09-30T04:31:58;103354.28;;;15.00;100.00
25430;BME280;13360;48.152;-1.788;2023-09-30T04:34:23;103342.31;;;15.00;100.00
25430;BME280;13360;48.152;-1.788;2023-09-30T04:36:49;103349.78;;;14.99;100.00
25430;BME280;13360;48.152;-1.788;2023-09-30T04:39:14;103346.13;;;14.93;100.00
25430;BME280;13360;48.152;-1.788;2023-09-30T04:41:40;103343.88;;;14.90;100.00
25430;BME280;13360;48.152;-1.788;2023-09-30T04:44:08;103351.38;;;14.90;100.00
25430;BME280;13360;48.152;-1.788;2023-09-30T04:46:36;103361.69;;;14.89;100.00
25430;BME280;13360;48.152;-1.788;2023-09-30T04:49:06;103360.56;;;14.90;100.00
25430;BME280;13360;48.152;-1.788;2023-09-30T04:51:32;103351.38;;;14.90;100.00
25430;BME280;13360;48.152;-1.788;2023-09-30T04:53:58;103341.88;;;14.86;100.00
25430;BME280;13360;48.152;-1.788;2023-09-30T04:56:24;103336.84;;;14.83;100.00
25430;BME280;13360;48.152;-1.788;2023-09-30T04:58:50;103347.16;;;14.82;100.00
25430;BME280;13360;48.152;-1.788;2023-09-30T05:01:15;103355.75;;;14.81;100.00
25430;BME280;13360;48.152;-1.788;2023-09-30T05:03:40;103350.13;;;14.76;100.00
25430;BME280;13360;48.152;-1.788;2023-09-30T05:06:05;103328.97;;;14.75;100.00
25430;BME280;13360;48.152;-1.788;2023-09-30T05:08:32;103329.53;;;14.77;100.00
25430;BME280;13360;48.152;-1.788;2023-09-30T05:10:58;103330.63;;;14.76;100.00
25430;BME280;13360;48.152;-1.788;2023-09-30T05:13:23;103293.31;;;14.72;100.00
25430;BME280;13360;48.152;-1.788;2023-09-30T05:15:49;103285.81;;;14.72;100.00
25430;BME280;13360;48.152;-1.788;2023-09-30T05:18:14;103298.34;;;14.75;100.00
25430;BME280;13360;48.152;-1.788;2023-09-30T05:20:39;103293.06;;;14.73;100.00
25430;BME280;13360;48.152;-1.788;2023-09-30T05:23:06;103281.34;;;14.71;100.00
25430;BME280;13360;48.152;-1.788;2023-09-30T05:25:32;103276.63;;;14.72;100.00
25430;BME280;13360;48.152;-1.788;2023-09-30T05:27:57;103274.38;;;14.69;100.00
25430;BME280;13360;48.152;-1.788;2023-09-30T05:30:22;103276.59;;;14.67;100.00
25430;BME280;13360;48.152;-1.788;2023-09-30T05:32:48;103281.63;;;14.70;100.00
25430;BME280;13360;48.152;-1.788;2023-09-30T05:35:13;103272.16;;;14.71;100.00
25430;BME280;13360;48.152;-1.788;2023-09-30T05:37:41;103259.91;;;14.67;100.00
25430;BME280;13360;48.152;-1.788;2023-09-30T05:40:07;103258.78;;;14.68;100.00
25430;BME280;13360;48.152;-1.788;2023-09-30T05:42:42;103272.16;;;14.71;100.00
25430;BME280;13360;48.152;-1.788;2023-09-30T05:45:08;103272.47;;;14.74;100.00
25430;BME280;13360;48.152;-1.788;2023-09-30T05:47:34;103273.84;;;14.72;100.00
25430;BME280;13360;48.152;-1.788;2023-09-30T05:49:59;103280.25;;;14.72;100.00
25430;BME280;13360;48.152;-1.788;2023-09-30T05:52:25;103290.28;;;14.73;100.00
25430;BME280;13360;48.152;-1.788;2023-09-30T05:54:50;103294.44;;;14.71;100.00
25430;BME280;13360;48.152;-1.788;2023-09-30T05:57:15;103321.41;;;14.70;100.00
25430;BME280;13360;48.152;-1.788;2023-09-30T05:59:40;103328.06;;;14.69;100.00
25430;BME280;13360;48.152;-1.788;2023-09-30T06:02:05;103337.25;;;14.70;100.00
25430;BME280;13360;48.152;-1.788;2023-09-30T06:04:31;103345.03;;;14.68;100.00
25430;BME280;13360;48.152;-1.788;2023-09-30T06:06:58;103351.69;;;14.67;100.00
25430;BME280;13360;48.152;-1.788;2023-09-30T06:09:23;103367.81;;;14.64;100.00
25430;BME280;13360;48.152;-1.788;2023-09-30T06:11:50;103381.16;;;14.62;100.00
25430;BME280;13360;48.152;-1.788;2023-09-30T06:14:15;103398.69;;;14.63;100.00
25430;BME280;13360;48.152;-1.788;2023-09-30T06:16:41;103411.47;;;14.64;100.00
25430;BME280;13360;48.152;-1.788;2023-09-30T06:19:06;103426.81;;;14.67;100.00
25430;BME280;13360;48.152;-1.788;2023-09-30T06:21:31;103440.47;;;14.68;100.00
25430;BME280;13360;48.152;-1.788;2023-09-30T06:23:59;103459.69;;;14.70;100.00
25430;BME280;13360;48.152;-1.788;2023-09-30T06:26:25;103469.69;;;14.71;100.00
25430;BME280;13360;48.152;-1.788;2023-09-30T06:28:50;103469.69;;;14.71;100.00
25430;BME280;13360;48.152;-1.788;2023-09-30T06:31:18;103474.69;;;14.69;100.00
25430;BME280;13360;48.152;-1.788;2023-09-30T06:33:44;103467.69;;;14.66;100.00
25430;BME280;13360;48.152;-1.788;2023-09-30T06:36:09;103473.53;;;14.64;100.00
25430;BME280;13360;48.152;-1.788;2023-09-30T06:38:35;103488.53;;;14.63;100.00
25430;BME280;13360;48.152;-1.788;2023-09-30T06:41:02;103490.22;;;14.64;100.00
25430;BME280;13360;48.152;-1.788;2023-09-30T06:43:27;103492.41;;;14.62;100.00
25430;BME280;13360;48.152;-1.788;2023-09-30T06:45:53;103486.53;;;14.59;100.00
25430;BME280;13360;48.152;-1.788;2023-09-30T06:48:19;103506.06;;;14.64;100.00
25430;BME280;13360;48.152;-1.788;2023-09-30T06:50:45;103523.91;;;14.68;100.00
25430;BME280;13360;48.152;-1.788;2023-09-30T06:53:13;103534.84;;;14.75;100.00
25430;BME280;13360;48.152;-1.788;2023-09-30T06:55:38;103528.75;;;14.78;100.00
25430;BME280;13360;48.152;-1.788;2023-09-30T06:58:04;103534.94;;;14.80;100.00
25430;BME280;13360;48.152;-1.788;2023-09-30T07:00:32;103540.25;;;14.81;100.00
25430;BME280;13360;48.152;-1.788;2023-09-30T07:02:58;103541.09;;;14.82;100.00
25430;BME280;13360;48.152;-1.788;2023-09-30T07:05:24;103555.59;;;14.84;100.00
25430;BME280;13360;48.152;-1.788;2023-09-30T07:07:49;103575.38;;;14.87;100.00
25430;BME280;13360;48.152;-1.788;2023-09-30T07:10:14;103579.59;;;14.90;100.00
25430;BME280;13360;48.152;-1.788;2023-09-30T07:12:39;103590.22;;;14.93;100.00
25430;BME280;13360;48.152;-1.788;2023-09-30T07:15:05;103600.81;;;14.96;100.00
25430;BME280;13360;48.152;-1.788;2023-09-30T07:17:30;103602.00;;;15.00;100.00
25430;BME280;13360;48.152;-1.788;2023-09-30T07:19:56;103642.94;;;15.00;100.00
25430;BME280;13360;48.152;-1.788;2023-09-30T07:22:21;103662.72;;;15.03;100.00
25430;BME280;13360;48.152;-1.788;2023-09-30T07:24:47;103670.06;;;15.09;100.00
25430;BME280;13360;48.152;-1.788;2023-09-30T07:27:12;103666.16;;;15.10;100.00
25430;BME280;13360;48.152;-1.788;2023-09-30T07:29:37;103678.22;;;15.16;100.00
25430;BME280;13360;48.152;-1.788;2023-09-30T07:32:02;103703.59;;;15.19;100.00
25430;BME280;13360;48.152;-1.788;2023-09-30T07:34:28;103713.50;;;15.10;100.00
25430;BME280;13360;48.152;-1.788;2023-09-30T07:36:53;103755.84;;;15.12;100.00
25430;BME280;13360;48.152;-1.788;2023-09-30T07:39:18;103774.56;;;15.17;100.00
25430;BME280;13360;48.152;-1.788;2023-09-30T07:41:43;103792.22;;;15.22;100.00
25430;BME280;13360;48.152;-1.788;2023-09-30T07:44:09;103807.31;;;15.27;100.00
25430;BME280;13360;48.152;-1.788;2023-09-30T07:46:34;103817.09;;;15.29;100.00
25430;BME280;13360;48.152;-1.788;2023-09-30T07:49:00;103829.09;;;15.30;100.00
25430;BME280;13360;48.152;-1.788;2023-09-30T07:51:25;103843.84;;;15.30;100.00
25430;BME280;13360;48.152;-1.788;2023-09-30T07:53:51;103858.19;;;15.39;100.00
25430;BME280;13360;48.152;-1.788;2023-09-30T07:56:16;103866.72;;;15.49;100.00
25430;BME280;13360;48.152;-1.788;2023-09-30T07:58:41;103875.16;;;15.54;100.00
25430;BME280;13360;48.152;-1.788;2023-09-30T08:01:07;103900.44;;;15.64;100.00
25430;BME280;13360;48.152;-1.788;2023-09-30T08:03:32;103910.88;;;15.74;100.00
25430;BME280;13360;48.152;-1.788;2023-09-30T08:05:59;103912.38;;;15.81;100.00
25430;BME280;13360;48.152;-1.788;2023-09-30T08:08:24;103907.47;;;15.89;100.00
25430;BME280;13360;48.152;-1.788;2023-09-30T08:10:49;103922.97;;;16.01;100.00
25430;BME280;13360;48.152;-1.788;2023-09-30T08:13:15;103938.53;;;16.14;100.00
25430;BME280;13360;48.152;-1.788;2023-09-30T08:15:42;103938.06;;;16.22;100.00
25430;BME280;13360;48.152;-1.788;2023-09-30T08:18:07;103934.06;;;16.35;100.00
25430;BME280;13360;48.152;-1.788;2023-09-30T08:20:33;103943.47;;;16.51;100.00
25430;BME280;13360;48.152;-1.788;2023-09-30T08:22:58;103925.47;;;16.63;100.00
25430;BME280;13360;48.152;-1.788;2023-09-30T08:25:24;103929.34;;;16.79;100.00
25430;BME280;13360;48.152;-1.788;2023-09-30T08:27:49;103931.50;;;16.99;100.00
25430;BME280;13360;48.152;-1.788;2023-09-30T08:30:15;103890.03;;;17.13;100.00
25430;BME280;13360;48.152;-1.788;2023-09-30T08:32:40;103851.53;;;17.20;100.00
25430;BME280;13360;48.152;-1.788;2023-09-30T08:35:06;103829.28;;;17.30;100.00
25430;BME280;13360;48.152;-1.788;2023-09-30T08:37:32;103836.34;;;17.43;100.00
25430;BME280;13360;48.152;-1.788;2023-09-30T08:39:57;103802.06;;;17.52;100.00
25430;BME280;13360;48.152;-1.788;2023-09-30T08:42:23;103763.22;;;17.56;100.00
25430;BME280;13360;48.152;-1.788;2023-09-30T08:44:51;103714.88;;;17.55;100.00
25430;BME280;13360;48.152;-1.788;2023-09-30T08:47:18;103627.66;;;17.53;100.00
25430;BME280;13360;48.152;-1.788;2023-09-30T08:49:45;103562.00;;;17.51;100.00
25430;BME280;13360;48.152;-1.788;2023-09-30T08:52:11;103528.22;;;17.67;100.00
25430;BME280;13360;48.152;-1.788;2023-09-30T08:54:36;103499.97;;;18.05;100.00
25430;BME280;13360;48.152;-1.788;2023-09-30T08:57:03;103426.97;;;18.16;100.00
25430;BME280;13360;48.152;-1.788;2023-09-30T08:59:29;103356.72;;;18.23;100.00
25430;BME280;13360;48.152;-1.788;2023-09-30T09:01:56;103348.00;;;18.40;100.00
25430;BME280;13360;48.152;-1.788;2023-09-30T09:04:22;103279.41;;;18.42;100.00
25430;BME280;13360;48.152;-1.788;2023-09-30T09:06:47;103246.03;;;18.56;100.00
25430;BME280;13360;48.152;-1.788;2023-09-30T09:09:21;103230.31;;;18.99;100.00
25430;BME280;13360;48.152;-1.788;2023-09-30T09:11:47;103114.81;;;19.07;100.00
25430;BME280;13360;48.152;-1.788;2023-09-30T09:14:12;103077.31;;;19.27;100.00
25430;BME280;13360;48.152;-1.788;2023-09-30T09:16:50;103067.34;;;19.64;100.00
25430;BME280;13360;48.152;-1.788;2023-09-30T09:19:15;103011.81;;;19.98;100.00
25430;BME280;13360;48.152;-1.788;2023-09-30T09:21:57;102878.25;;;20.02;100.00
25430;BME280;13360;48.152;-1.788;2023-09-30T09:27:03;102637.41;;;20.09;100.00
25430;BME280;13360;48.152;-1.788;2023-09-30T09:29:28;102638.97;;;20.38;100.00
25430;BME280;13360;48.152;-1.788;2023-09-30T09:31:53;102633.28;;;20.65;100.00
25430;BME280;13360;48.152;-1.788;2023-09-30T09:34:31;102604.03;;;20.89;100.00
25430;BME280;13360;48.152;-1.788;2023-09-30T09:36:56;102494.19;;;20.59;100.00
25430;BME280;13360;48.152;-1.788;2023-09-30T09:39:31;102472.22;;;20.61;100.00
25430;BME280;13360;48.152;-1.788;2023-09-30T09:41:56;102502.75;;;20.94;100.00
25430;BME280;13360;48.152;-1.788;2023-09-30T09:44:23;102445.69;;;20.67;100.00
25430;BME280;13360;48.152;-1.788;2023-09-30T09:46:48;102458.41;;;20.74;100.00
25430;BME280;13360;48.152;-1.788;2023-09-30T09:49:18;102427.53;;;20.74;100.00
25430;BME280;13360;48.152;-1.788;2023-09-30T09:51:47;102449.75;;;21.01;100.00
25430;BME280;13360;48.152;-1.788;2023-09-30T09:54:13;102460.75;;;21.28;100.00
25430;BME280;13360;48.152;-1.788;2023-09-30T09:56:39;102446.72;;;21.28;100.00
25430;BME280;13360;48.152;-1.788;2023-09-30T09:59:04;102432.81;;;21.32;100.00
25430;BME280;13360;48.152;-1.788;2023-09-30T10:01:30;102429.19;;;21.32;100.00
25430;BME280;13360;48.152;-1.788;2023-09-30T10:03:55;102428.00;;;21.41;100.00
25430;BME280;13360;48.152;-1.788;2023-09-30T10:06:21;102428.69;;;21.38;100.00
25430;BME280;13360;48.152;-1.788;2023-09-30T10:08:48;102432.00;;;21.32;100.00
25430;BME280;13360;48.152;-1.788;2023-09-30T10:11:16;102412.75;;;21.16;100.00
25430;BME280;13360;48.152;-1.788;2023-09-30T10:13:55;102401.97;;;21.01;100.00
25430;BME280;13360;48.152;-1.788;2023-09-30T10:24:40;102426.19;;;20.62;100.00
25430;BME280;13360;48.152;-1.788;2023-09-30T10:29:46;102444.44;;;20.51;100.00
25430;BME280;13360;48.152;-1.788;2023-09-30T10:32:11;102406.19;;;20.33;100.00
25430;BME280;13360;48.152;-1.788;2023-09-30T10:34:37;102398.94;;;20.32;100.00
25430;BME280;13360;48.152;-1.788;2023-09-30T10:37:21;102449.28;;;20.37;100.00
25430;BME280;13360;48.152;-1.788;2023-09-30T10:39:56;102493.88;;;20.38;100.00
25430;BME280;13360;48.152;-1.788;2023-09-30T10:45:07;102535.06;;;20.43;100.00
25430;BME280;13360;48.152;-1.788;2023-09-30T10:49:57;102572.69;;;20.42;100.00
25430;BME280;13360;48.152;-1.788;2023-09-30T10:52:23;102597.63;;;20.44;100.00
25430;BME280;13360;48.152;-1.788;2023-09-30T10:54:49;102597.00;;;20.47;100.00
25430;BME280;13360;48.152;-1.788;2023-09-30T10:57:26;102515.94;;;20.31;100.00
25430;BME280;13360;48.152;-1.788;2023-09-30T11:00:06;102485.56;;;20.25;100.00
25430;BME280;13360;48.152;-1.788;2023-09-30T11:02:31;102511.63;;;20.25;100.00
25430;BME280;13360;48.152;-1.788;2023-09-30T11:04:57;102547.00;;;20.35;100.00
25430;BME280;13360;48.152;-1.788;2023-09-30T11:07:22;102522.22;;;20.28;100.00
25430;BME280;13360;48.152;-1.788;2023-09-30T11:09:49;102456.47;;;20.21;100.00
25430;BME280;13360;48.152;-1.788;2023-09-30T11:12:14;102542.16;;;20.27;100.00
25430;BME280;13360;48.152;-1.788;2023-09-30T11:14:42;102570.59;;;20.34;100.00
25430;BME280;13360;48.152;-1.788;2023-09-30T11:17:07;102578.69;;;20.35;100.00
25430;BME280;13360;48.152;-1.788;2023-09-30T11:19:36;102506.66;;;20.22;100.00
25430;BME280;13360;48.152;-1.788;2023-09-30T11:22:02;102493.97;;;20.25;100.00
25430;BME280;13360;48.152;-1.788;2023-09-30T11:24:28;102537.56;;;20.31;100.00
25430;BME280;13360;48.152;-1.788;2023-09-30T11:26:54;102572.75;;;20.37;100.00
25430;BME280;13360;48.152;-1.788;2023-09-30T11:29:20;102625.44;;;20.40;100.00
25430;BME280;13360;48.152;-1.788;2023-09-30T11:31:46;102647.31;;;20.43;100.00
25430;BME280;13360;48.152;-1.788;2023-09-30T11:34:13;102634.44;;;20.42;100.00
25430;BME280;13360;48.152;-1.788;2023-09-30T11:36:39;102604.41;;;20.43;100.00
25430;BME280;13360;48.152;-1.788;2023-09-30T11:39:07;102566.00;;;20.38;100.00
25430;BME280;13360;48.152;-1.788;2023-09-30T11:41:35;102517.78;;;20.36;100.00
25430;BME280;13360;48.152;-1.788;2023-09-30T11:44:06;102562.03;;;20.39;100.00
25430;BME280;13360;48.152;-1.788;2023-09-30T11:46:46;102558.94;;;20.40;100.00
25430;BME280;13360;48.152;-1.788;2023-09-30T11:49:12;102537.34;;;20.41;100.00
25430;BME280;13360;48.152;-1.788;2023-09-30T11:51:44;102513.19;;;20.40;100.00
25430;BME280;13360;48.152;-1.788;2023-09-30T11:54:11;102519.66;;;20.40;100.00
25430;BME280;13360;48.152;-1.788;2023-09-30T11:56:36;102530.28;;;20.44;100.00
25430;BME280;13360;48.152;-1.788;2023-09-30T11:59:02;102560.00;;;20.45;100.00
25430;BME280;13360;48.152;-1.788;2023-09-30T12:01:27;102566.44;;;20.45;100.00
25430;BME280;13360;48.152;-1.788;2023-09-30T12:03:55;102566.94;;;20.47;100.00
25430;BME280;13360;48.152;-1.788;2023-09-30T12:06:21;102544.63;;;20.42;100.00
25430;BME280;13360;48.152;-1.788;2023-09-30T12:08:46;102494.13;;;20.42;100.00
25430;BME280;13360;48.152;-1.788;2023-09-30T12:11:11;102513.13;;;20.45;100.00
25430;BME280;13360;48.152;-1.788;2023-09-30T12:13:38;102466.03;;;20.42;100.00
25430;BME280;13360;48.152;-1.788;2023-09-30T12:16:03;102471.66;;;20.42;100.00
25430;BME280;13360;48.152;-1.788;2023-09-30T12:18:28;102491.47;;;20.46;100.00
25430;BME280;13360;48.152;-1.788;2023-09-30T12:20:54;102516.41;;;20.47;100.00
25430;BME280;13360;48.152;-1.788;2023-09-30T12:23:19;102510.31;;;20.45;100.00
25430;BME280;13360;48.152;-1.788;2023-09-30T12:25:45;102492.63;;;20.45;100.00
25430;BME280;13360;48.152;-1.788;2023-09-30T12:28:10;102477.78;;;20.44;100.00
25430;BME280;13360;48.152;-1.788;2023-09-30T12:30:35;102469.84;;;20.46;100.00
25430;BME280;13360;48.152;-1.788;2023-09-30T12:33:01;102503.88;;;20.45;100.00
25430;BME280;13360;48.152;-1.788;2023-09-30T12:35:26;102451.44;;;20.40;100.00
25430;BME280;13360;48.152;-1.788;2023-09-30T12:37:51;102467.38;;;20.45;100.00
25430;BME280;13360;48.152;-1.788;2023-09-30T12:40:17;102499.06;;;20.45;100.00
25430;BME280;13360;48.152;-1.788;2023-09-30T12:42:43;102467.56;;;20.48;100.00
25430;BME280;13360;48.152;-1.788;2023-09-30T12:45:09;102482.09;;;20.50;100.00